sensor_id;sensor_type;location;lat;lon;timestamp;P1;durP1;ratioP1;P2;durP2;ratioP2
64063;SDS011;50314;50.618;10.642;2023-04-22T00:00:36;4.30;;;3.15;;
64063;SDS011;50314;50.618;10.642;2023-04-22T00:03:02;5.00;;;4.07;;
64063;SDS011;50314;50.618;10.642;2023-04-22T00:05:29;4.38;;;3.42;;
64063;SDS011;50314;50.618;10.642;2023-04-22T00:07:54;4.85;;;3.95;;
64063;SDS011;50314;50.618;10.642;2023-04-22T00:10:20;3.95;;;3.10;;
64063;SDS011;50314;50.618;10.642;2023-04-22T00:12:45;5.78;;;4.38;;
64063;SDS011;50314;50.618;10.642;2023-04-22T00:15:11;5.20;;;3.58;;
64063;SDS011;50314;50.618;10.642;2023-04-22T00:17:36;4.28;;;3.88;;
64063;SDS011;50314;50.618;10.642;2023-04-22T00:20:02;5.00;;;3.70;;
64063;SDS011;50314;50.618;10.642;2023-04-22T00:22:28;4.65;;;3.78;;
64063;SDS011;50314;50.618;10.642;2023-04-22T00:24:53;4.43;;;3.13;;
64063;SDS011;50314;50.618;10.642;2023-04-22T00:27:19;4.32;;;3.83;;
64063;SDS011;50314;50.618;10.642;2023-04-22T00:29:44;4.38;;;3.78;;
64063;SDS011;50314;50.618;10.642;2023-04-22T00:32:10;3.97;;;3.33;;
64063;SDS011;50314;50.618;10.642;2023-04-22T00:34:35;4.40;;;3.08;;
64063;SDS011;50314;50.618;10.642;2023-04-22T00:37:01;4.30;;;3.53;;
64063;SDS011;50314;50.618;10.642;2023-04-22T00:39:26;4.47;;;3.72;;
64063;SDS011;50314;50.618;10.642;2023-04-22T00:41:52;3.97;;;3.35;;
64063;SDS011;50314;50.618;10.642;2023-04-22T00:44:17;4.15;;;3.50;;
64063;SDS011;50314;50.618;10.642;2023-04-22T00:46:43;4.78;;;3.97;;
64063;SDS011;50314;50.618;10.642;2023-04-22T00:49:09;4.20;;;3.40;;
64063;SDS011;50314;50.618;10.642;2023-04-22T00:51:35;4.38;;;3.45;;
64063;SDS011;50314;50.618;10.642;2023-04-22T00:54:00;4.15;;;3.30;;
64063;SDS011;50314;50.618;10.642;2023-04-22T00:56:27;3.55;;;3.25;;
64063;SDS011;50314;50.618;10.642;2023-04-22T00:58:55;3.85;;;3.15;;
64063;SDS011;50314;50.618;10.642;2023-04-22T01:01:22;4.20;;;3.70;;
64063;SDS011;50314;50.618;10.642;2023-04-22T01:03:48;4.43;;;3.33;;
64063;SDS011;50314;50.618;10.642;2023-04-22T01:06:17;4.45;;;3.38;;
64063;SDS011;50314;50.618;10.642;2023-04-22T01:08:43;4.18;;;3.50;;
64063;SDS011;50314;50.618;10.642;2023-04-22T01:11:10;5.65;;;3.70;;
64063;SDS011;50314;50.618;10.642;2023-04-22T01:13:35;3.90;;;3.50;;
64063;SDS011;50314;50.618;10.642;2023-04-22T01:16:04;3.75;;;3.00;;
64063;SDS011;50314;50.618;10.642;2023-04-22T01:18:32;3.60;;;3.05;;
64063;SDS011;50314;50.618;10.642;2023-04-22T01:20:59;3.95;;;3.47;;
64063;SDS011;50314;50.618;10.642;2023-04-22T01:23:26;3.65;;;3.10;;
64063;SDS011;50314;50.618;10.642;2023-04-22T01:25:52;4.43;;;3.22;;
64063;SDS011;50314;50.618;10.642;2023-04-22T01:28:17;3.42;;;3.10;;
64063;SDS011;50314;50.618;10.642;2023-04-22T01:30:43;3.88;;;3.47;;
64063;SDS011;50314;50.618;10.642;2023-04-22T01:33:09;4.10;;;3.08;;
64063;SDS011;50314;50.618;10.642;2023-04-22T01:35:35;3.67;;;3.30;;
64063;SDS011;50314;50.618;10.642;2023-04-22T01:38:03;3.80;;;3.42;;
64063;SDS011;50314;50.618;10.642;2023-04-22T01:40:30;3.85;;;3.20;;
64063;SDS011;50314;50.618;10.642;2023-04-22T01:42:56;3.60;;;3.13;;
64063;SDS011;50314;50.618;10.642;2023-04-22T01:45:26;3.38;;;3.05;;
64063;SDS011;50314;50.618;10.642;2023-04-22T01:47:52;4.45;;;3.60;;
64063;SDS011;50314;50.618;10.642;2023-04-22T01:50:18;3.17;;;2.88;;
64063;SDS011;50314;50.618;10.642;2023-04-22T01:52:43;4.38;;;3.50;;
64063;SDS011;50314;50.618;10.642;2023-04-22T01:55:09;4.20;;;2.92;;
64063;SDS011;50314;50.618;10.642;2023-04-22T01:57:34;4.07;;;3.05;;
64063;SDS011;50314;50.618;10.642;2023-04-22T02:00:00;3.42;;;2.83;;
64063;SDS011;50314;50.618;10.642;2023-04-22T02:02:26;3.08;;;2.78;;
64063;SDS011;50314;50.618;10.642;2023-04-22T02:04:51;3.97;;;3.35;;
64063;SDS011;50314;50.618;10.642;2023-04-22T02:07:17;3.40;;;3.00;;
64063;SDS011;50314;50.618;10.642;2023-04-22T02:09:42;3.25;;;2.95;;
64063;SDS011;50314;50.618;10.642;2023-04-22T02:12:08;3.72;;;2.92;;
64063;SDS011;50314;50.618;10.642;2023-04-22T02:14:33;4.70;;;3.17;;
64063;SDS011;50314;50.618;10.642;2023-04-22T02:16:59;3.90;;;3.10;;
64063;SDS011;50314;50.618;10.642;2023-04-22T02:19:26;3.92;;;3.03;;
64063;SDS011;50314;50.618;10.642;2023-04-22T02:21:52;3.45;;;3.15;;
64063;SDS011;50314;50.618;10.642;2023-04-22T02:24:18;3.42;;;3.13;;
64063;SDS011;50314;50.618;10.642;2023-04-22T02:26:43;3.35;;;2.95;;
64063;SDS011;50314;50.618;10.642;2023-04-22T02:29:10;3.47;;;3.15;;
64063;SDS011;50314;50.618;10.642;2023-04-22T02:31:35;3.83;;;2.85;;
64063;SDS011;50314;50.618;10.642;2023-04-22T02:34:01;2.70;;;2.50;;
64063;SDS011;50314;50.618;10.642;2023-04-22T02:36:26;3.35;;;2.88;;
64063;SDS011;50314;50.618;10.642;2023-04-22T02:38:52;2.97;;;2.60;;
64063;SDS011;50314;50.618;10.642;2023-04-22T02:41:18;3.63;;;2.63;;
64063;SDS011;50314;50.618;10.642;2023-04-22T02:43:43;3.25;;;2.60;;
64063;SDS011;50314;50.618;10.642;2023-04-22T02:46:11;2.65;;;2.22;;
64063;SDS011;50314;50.618;10.642;2023-04-22T02:48:38;3.00;;;2.30;;
64063;SDS011;50314;50.618;10.642;2023-04-22T02:51:03;2.83;;;2.20;;
64063;SDS011;50314;50.618;10.642;2023-04-22T02:53:30;3.05;;;2.60;;
64063;SDS011;50314;50.618;10.642;2023-04-22T02:55:56;3.63;;;2.17;;
64063;SDS011;50314;50.618;10.642;2023-04-22T02:58:22;3.03;;;2.30;;
64063;SDS011;50314;50.618;10.642;2023-04-22T03:00:48;2.65;;;2.20;;
64063;SDS011;50314;50.618;10.642;2023-04-22T03:03:14;3.10;;;2.58;;
64063;SDS011;50314;50.618;10.642;2023-04-22T03:05:39;2.40;;;2.20;;
64063;SDS011;50314;50.618;10.642;2023-04-22T03:08:05;2.50;;;2.30;;
64063;SDS011;50314;50.618;10.642;2023-04-22T03:10:30;3.80;;;2.50;;
64063;SDS011;50314;50.618;10.642;2023-04-22T03:12:56;3.15;;;2.25;;
64063;SDS011;50314;50.618;10.642;2023-04-22T03:15:22;2.15;;;1.95;;
64063;SDS011;50314;50.618;10.642;2023-04-22T03:17:47;3.38;;;2.50;;
64063;SDS011;50314;50.618;10.642;2023-04-22T03:20:14;3.35;;;2.65;;
64063;SDS011;50314;50.618;10.642;2023-04-22T03:22:39;2.55;;;2.10;;
64063;SDS011;50314;50.618;10.642;2023-04-22T03:25:05;2.72;;;2.10;;
64063;SDS011;50314;50.618;10.642;2023-04-22T03:27:31;3.08;;;2.20;;
64063;SDS011;50314;50.618;10.642;2023-04-22T03:29:57;2.65;;;2.30;;
64063;SDS011;50314;50.618;10.642;2023-04-22T03:32:22;2.95;;;2.33;;
64063;SDS011;50314;50.618;10.642;2023-04-22T03:34:48;3.17;;;2.58;;
64063;SDS011;50314;50.618;10.642;2023-04-22T03:37:13;2.83;;;2.53;;
64063;SDS011;50314;50.618;10.642;2023-04-22T03:39:38;3.47;;;2.38;;
64063;SDS011;50314;50.618;10.642;2023-04-22T03:42:04;2.80;;;2.20;;
64063;SDS011;50314;50.618;10.642;2023-04-22T03:44:30;2.50;;;2.08;;
64063;SDS011;50314;50.618;10.642;2023-04-22T03:46:55;2.90;;;2.53;;
64063;SDS011;50314;50.618;10.642;2023-04-22T03:49:20;2.92;;;2.22;;
64063;SDS011;50314;50.618;10.642;2023-04-22T03:51:46;2.70;;;2.40;;
64063;SDS011;50314;50.618;10.642;2023-04-22T03:54:11;2.70;;;2.00;;
64063;SDS011;50314;50.618;10.642;2023-04-22T03:56:37;2.95;;;2.63;;
64063;SDS011;50314;50.618;10.642;2023-04-22T03:59:02;2.05;;;1.83;;
64063;SDS011;50314;50.618;10.642;2023-04-22T04:01:28;2.85;;;2.58;;
64063;SDS011;50314;50.618;10.642;2023-04-22T04:03:53;2.80;;;2.30;;
64063;SDS011;50314;50.618;10.642;2023-04-22T04:06:19;2.78;;;2.15;;
64063;SDS011;50314;50.618;10.642;2023-04-22T04:08:44;2.97;;;2.28;;
64063;SDS011;50314;50.618;10.642;2023-04-22T04:11:10;2.17;;;1.85;;
64063;SDS011;50314;50.618;10.642;2023-04-22T04:13:35;3.33;;;2.60;;
64063;SDS011;50314;50.618;10.642;2023-04-22T04:16:01;2.75;;;2.40;;
64063;SDS011;50314;50.618;10.642;2023-04-22T04:18:28;3.53;;;2.38;;
64063;SDS011;50314;50.618;10.642;2023-04-22T04:20:53;2.83;;;2.35;;
64063;SDS011;50314;50.618;10.642;2023-04-22T04:23:20;2.03;;;1.83;;
64063;SDS011;50314;50.618;10.642;2023-04-22T04:25:45;3.50;;;2.80;;
64063;SDS011;50314;50.618;10.642;2023-04-22T04:28:12;2.40;;;2.20;;
64063;SDS011;50314;50.618;10.642;2023-04-22T04:30:38;2.72;;;2.28;;
64063;SDS011;50314;50.618;10.642;2023-04-22T04:33:05;2.58;;;2.00;;
64063;SDS011;50314;50.618;10.642;2023-04-22T04:35:34;2.90;;;2.00;;
64063;SDS011;50314;50.618;10.642;2023-04-22T04:38:02;3.53;;;2.30;;
64063;SDS011;50314;50.618;10.642;2023-04-22T04:40:28;2.30;;;1.90;;
64063;SDS011;50314;50.618;10.642;2023-04-22T04:42:54;2.67;;;2.20;;
64063;SDS011;50314;50.618;10.642;2023-04-22T04:45:22;2.47;;;2.28;;
64063;SDS011;50314;50.618;10.642;2023-04-22T04:47:48;2.35;;;2.15;;
64063;SDS011;50314;50.618;10.642;2023-04-22T04:50:19;3.08;;;2.08;;
64063;SDS011;50314;50.618;10.642;2023-04-22T04:52:46;2.72;;;2.45;;
64063;SDS011;50314;50.618;10.642;2023-04-22T04:55:13;2.28;;;1.90;;
64063;SDS011;50314;50.618;10.642;2023-04-22T04:57:39;2.63;;;2.42;;
64063;SDS011;50314;50.618;10.642;2023-04-22T05:00:05;2.15;;;1.73;;
64063;SDS011;50314;50.618;10.642;2023-04-22T05:02:31;2.35;;;2.15;;
64063;SDS011;50314;50.618;10.642;2023-04-22T05:04:56;2.53;;;2.20;;
64063;SDS011;50314;50.618;10.642;2023-04-22T05:07:22;3.05;;;2.22;;
64063;SDS011;50314;50.618;10.642;2023-04-22T05:09:47;3.03;;;2.10;;
64063;SDS011;50314;50.618;10.642;2023-04-22T05:12:13;2.35;;;1.90;;
64063;SDS011;50314;50.618;10.642;2023-04-22T05:14:39;2.83;;;2.30;;
64063;SDS011;50314;50.618;10.642;2023-04-22T05:17:05;2.08;;;1.88;;
64063;SDS011;50314;50.618;10.642;2023-04-22T05:19:32;2.08;;;1.83;;
64063;SDS011;50314;50.618;10.642;2023-04-22T05:21:57;2.05;;;1.90;;
64063;SDS011;50314;50.618;10.642;2023-04-22T05:24:23;2.78;;;1.90;;
64063;SDS011;50314;50.618;10.642;2023-04-22T05:26:48;3.08;;;2.15;;
64063;SDS011;50314;50.618;10.642;2023-04-22T05:29:14;2.70;;;2.22;;
64063;SDS011;50314;50.618;10.642;2023-04-22T05:31:40;2.30;;;2.10;;
64063;SDS011;50314;50.618;10.642;2023-04-22T05:34:05;2.30;;;2.03;;
64063;SDS011;50314;50.618;10.642;2023-04-22T05:36:31;2.15;;;1.95;;
64063;SDS011;50314;50.618;10.642;2023-04-22T05:38:56;2.53;;;2.15;;
64063;SDS011;50314;50.618;10.642;2023-04-22T05:41:21;2.03;;;1.83;;
64063;SDS011;50314;50.618;10.642;2023-04-22T05:43:47;2.25;;;2.05;;
64063;SDS011;50314;50.618;10.642;2023-04-22T05:46:12;2.58;;;2.10;;
64063;SDS011;50314;50.618;10.642;2023-04-22T05:48:38;3.22;;;2.47;;
64063;SDS011;50314;50.618;10.642;2023-04-22T05:51:03;2.15;;;1.95;;
64063;SDS011;50314;50.618;10.642;2023-04-22T05:53:29;3.08;;;2.22;;
64063;SDS011;50314;50.618;10.642;2023-04-22T05:55:54;9.38;;;2.42;;
64063;SDS011;50314;50.618;10.642;2023-04-22T05:58:20;2.30;;;2.10;;
64063;SDS011;50314;50.618;10.642;2023-04-22T06:00:45;2.40;;;2.20;;
64063;SDS011;50314;50.618;10.642;2023-04-22T06:03:11;3.85;;;2.38;;
64063;SDS011;50314;50.618;10.642;2023-04-22T06:05:36;2.47;;;2.25;;
64063;SDS011;50314;50.618;10.642;2023-04-22T06:08:01;3.25;;;2.40;;
64063;SDS011;50314;50.618;10.642;2023-04-22T06:10:27;2.55;;;2.10;;
64063;SDS011;50314;50.618;10.642;2023-04-22T06:12:52;3.03;;;2.10;;
64063;SDS011;50314;50.618;10.642;2023-04-22T06:15:18;2.75;;;2.33;;
64063;SDS011;50314;50.618;10.642;2023-04-22T06:17:43;2.78;;;2.20;;
64063;SDS011;50314;50.618;10.642;2023-04-22T06:20:09;1.77;;;1.65;;
64063;SDS011;50314;50.618;10.642;2023-04-22T06:22:35;3.00;;;2.05;;
64063;SDS011;50314;50.618;10.642;2023-04-22T06:25:01;2.30;;;2.00;;
64063;SDS011;50314;50.618;10.642;2023-04-22T06:27:27;2.20;;;1.80;;
64063;SDS011;50314;50.618;10.642;2023-04-22T06:29:52;2.60;;;2.17;;
64063;SDS011;50314;50.618;10.642;2023-04-22T06:32:17;2.45;;;1.90;;
64063;SDS011;50314;50.618;10.642;2023-04-22T06:34:43;2.78;;;1.92;;
64063;SDS011;50314;50.618;10.642;2023-04-22T06:37:08;2.63;;;2.10;;
64063;SDS011;50314;50.618;10.642;2023-04-22T06:39:34;2.15;;;1.95;;
64063;SDS011;50314;50.618;10.642;2023-04-22T06:41:59;2.65;;;2.00;;
64063;SDS011;50314;50.618;10.642;2023-04-22T06:44:25;2.92;;;2.00;;
64063;SDS011;50314;50.618;10.642;2023-04-22T06:46:51;2.45;;;2.22;;
64063;SDS011;50314;50.618;10.642;2023-04-22T06:49:16;2.80;;;2.42;;
64063;SDS011;50314;50.618;10.642;2023-04-22T06:51:42;2.83;;;2.15;;
64063;SDS011;50314;50.618;10.642;2023-04-22T06:54:07;2.30;;;2.05;;
64063;SDS011;50314;50.618;10.642;2023-04-22T06:56:33;2.10;;;1.90;;
64063;SDS011;50314;50.618;10.642;2023-04-22T06:58:58;2.67;;;2.00;;
64063;SDS011;50314;50.618;10.642;2023-04-22T07:01:24;2.00;;;1.80;;
64063;SDS011;50314;50.618;10.642;2023-04-22T07:03:50;2.42;;;1.90;;
64063;SDS011;50314;50.618;10.642;2023-04-22T07:06:15;3.05;;;2.10;;
64063;SDS011;50314;50.618;10.642;2023-04-22T07:08:41;3.63;;;2.13;;
64063;SDS011;50314;50.618;10.642;2023-04-22T07:11:07;3.58;;;2.40;;
64063;SDS011;50314;50.618;10.642;2023-04-22T07:13:33;2.25;;;2.05;;
64063;SDS011;50314;50.618;10.642;2023-04-22T07:15:59;3.40;;;1.90;;
64063;SDS011;50314;50.618;10.642;2023-04-22T07:18:25;2.47;;;2.10;;
64063;SDS011;50314;50.618;10.642;2023-04-22T07:20:50;2.72;;;1.90;;
64063;SDS011;50314;50.618;10.642;2023-04-22T07:23:16;4.32;;;2.03;;
64063;SDS011;50314;50.618;10.642;2023-04-22T07:25:42;3.33;;;2.47;;
64063;SDS011;50314;50.618;10.642;2023-04-22T07:28:07;4.78;;;2.75;;
64063;SDS011;50314;50.618;10.642;2023-04-22T07:30:33;4.53;;;2.63;;
64063;SDS011;50314;50.618;10.642;2023-04-22T07:32:58;3.60;;;2.13;;
64063;SDS011;50314;50.618;10.642;2023-04-22T07:35:24;4.05;;;1.98;;
64063;SDS011;50314;50.618;10.642;2023-04-22T07:37:49;2.25;;;2.00;;
64063;SDS011;50314;50.618;10.642;2023-04-22T07:40:15;2.45;;;1.98;;
64063;SDS011;50314;50.618;10.642;2023-04-22T07:42:40;2.58;;;1.95;;
64063;SDS011;50314;50.618;10.642;2023-04-22T07:45:06;4.50;;;2.00;;
64063;SDS011;50314;50.618;10.642;2023-04-22T07:47:32;2.40;;;1.63;;
64063;SDS011;50314;50.618;10.642;2023-04-22T07:49:57;2.22;;;2.00;;
64063;SDS011;50314;50.618;10.642;2023-04-22T07:52:23;1.98;;;1.67;;
64063;SDS011;50314;50.618;10.642;2023-04-22T07:54:48;2.10;;;1.75;;
64063;SDS011;50314;50.618;10.642;2023-04-22T07:57:14;2.40;;;1.85;;
64063;SDS011;50314;50.618;10.642;2023-04-22T07:59:39;2.03;;;1.80;;
64063;SDS011;50314;50.618;10.642;2023-04-22T08:02:05;2.45;;;1.90;;
64063;SDS011;50314;50.618;10.642;2023-04-22T08:04:30;3.25;;;2.00;;
64063;SDS011;50314;50.618;10.642;2023-04-22T08:06:56;2.22;;;2.00;;
64063;SDS011;50314;50.618;10.642;2023-04-22T08:09:21;2.33;;;1.52;;
64063;SDS011;50314;50.618;10.642;2023-04-22T08:11:47;2.40;;;1.95;;
64063;SDS011;50314;50.618;10.642;2023-04-22T08:14:12;3.53;;;1.90;;
64063;SDS011;50314;50.618;10.642;2023-04-22T08:16:38;3.40;;;1.80;;
64063;SDS011;50314;50.618;10.642;2023-04-22T08:19:04;2.03;;;1.50;;
64063;SDS011;50314;50.618;10.642;2023-04-22T08:21:29;2.80;;;1.90;;
64063;SDS011;50314;50.618;10.642;2023-04-22T08:23:55;3.88;;;2.03;;
64063;SDS011;50314;50.618;10.642;2023-04-22T08:26:21;2.70;;;1.77;;
64063;SDS011;50314;50.618;10.642;2023-04-22T08:28:46;2.05;;;1.65;;
64063;SDS011;50314;50.618;10.642;2023-04-22T08:31:12;3.20;;;1.70;;
64063;SDS011;50314;50.618;10.642;2023-04-22T08:33:41;3.42;;;1.80;;
64063;SDS011;50314;50.618;10.642;2023-04-22T08:36:07;2.13;;;1.50;;
64063;SDS011;50314;50.618;10.642;2023-04-22T08:38:33;3.28;;;1.83;;
64063;SDS011;50314;50.618;10.642;2023-04-22T08:40:59;4.10;;;2.25;;
64063;SDS011;50314;50.618;10.642;2023-04-22T08:43:25;2.97;;;1.92;;
64063;SDS011;50314;50.618;10.642;2023-04-22T08:45:51;3.80;;;2.05;;
64063;SDS011;50314;50.618;10.642;2023-04-22T08:48:17;5.35;;;2.10;;
64063;SDS011;50314;50.618;10.642;2023-04-22T08:50:43;2.42;;;1.77;;
64063;SDS011;50314;50.618;10.642;2023-04-22T08:53:11;3.88;;;2.30;;
64063;SDS011;50314;50.618;10.642;2023-04-22T08:55:37;3.20;;;1.77;;
64063;SDS011;50314;50.618;10.642;2023-04-22T08:58:05;3.22;;;2.10;;
64063;SDS011;50314;50.618;10.642;2023-04-22T09:00:31;3.65;;;2.00;;
64063;SDS011;50314;50.618;10.642;2023-04-22T09:02:59;2.35;;;1.58;;
64063;SDS011;50314;50.618;10.642;2023-04-22T09:05:30;4.95;;;2.10;;
64063;SDS011;50314;50.618;10.642;2023-04-22T09:07:57;5.00;;;2.03;;
64063;SDS011;50314;50.618;10.642;2023-04-22T09:10:23;2.90;;;1.83;;
64063;SDS011;50314;50.618;10.642;2023-04-22T09:12:49;3.38;;;2.10;;
64063;SDS011;50314;50.618;10.642;2023-04-22T09:15:16;3.30;;;2.25;;
64063;SDS011;50314;50.618;10.642;2023-04-22T09:17:42;4.75;;;2.30;;
64063;SDS011;50314;50.618;10.642;2023-04-22T09:20:07;3.92;;;2.00;;
64063;SDS011;50314;50.618;10.642;2023-04-22T09:22:41;8.45;;;2.45;;
64063;SDS011;50314;50.618;10.642;2023-04-22T09:25:15;3.25;;;1.90;;
64063;SDS011;50314;50.618;10.642;2023-04-22T09:27:51;4.43;;;1.90;;
64063;SDS011;50314;50.618;10.642;2023-04-22T09:30:33;2.80;;;2.00;;
64063;SDS011;50314;50.618;10.642;2023-04-22T09:33:02;3.30;;;1.80;;
64063;SDS011;50314;50.618;10.642;2023-04-22T09:35:32;3.90;;;2.22;;
64063;SDS011;50314;50.618;10.642;2023-04-22T09:38:00;4.90;;;2.53;;
64063;SDS011;50314;50.618;10.642;2023-04-22T09:40:29;2.95;;;2.00;;
64063;SDS011;50314;50.618;10.642;2023-04-22T09:42:56;4.18;;;2.00;;
64063;SDS011;50314;50.618;10.642;2023-04-22T09:48:07;4.10;;;2.17;;
64063;SDS011;50314;50.618;10.642;2023-04-22T09:50:34;2.45;;;1.88;;
64063;SDS011;50314;50.618;10.642;2023-04-22T09:53:04;3.10;;;1.92;;
64063;SDS011;50314;50.618;10.642;2023-04-22T09:55:34;3.17;;;2.25;;
64063;SDS011;50314;50.618;10.642;2023-04-22T09:58:08;3.05;;;1.83;;
64063;SDS011;50314;50.618;10.642;2023-04-22T10:00:38;4.00;;;2.00;;
64063;SDS011;50314;50.618;10.642;2023-04-22T10:03:05;2.47;;;1.90;;
64063;SDS011;50314;50.618;10.642;2023-04-22T10:05:31;2.45;;;1.75;;
64063;SDS011;50314;50.618;10.642;2023-04-22T10:08:04;2.88;;;1.85;;
64063;SDS011;50314;50.618;10.642;2023-04-22T10:10:31;3.42;;;2.20;;
64063;SDS011;50314;50.618;10.642;2023-04-22T10:12:57;3.67;;;1.95;;
64063;SDS011;50314;50.618;10.642;2023-04-22T10:15:24;2.90;;;2.20;;
64063;SDS011;50314;50.618;10.642;2023-04-22T10:20:17;2.50;;;1.80;;
64063;SDS011;50314;50.618;10.642;2023-04-22T10:22:44;2.60;;;1.83;;
64063;SDS011;50314;50.618;10.642;2023-04-22T10:25:10;2.63;;;1.50;;
64063;SDS011;50314;50.618;10.642;2023-04-22T10:27:37;2.22;;;1.83;;
64063;SDS011;50314;50.618;10.642;2023-04-22T10:30:03;2.70;;;1.40;;
64063;SDS011;50314;50.618;10.642;2023-04-22T10:32:31;2.60;;;1.40;;
64063;SDS011;50314;50.618;10.642;2023-04-22T10:35:10;3.38;;;1.50;;
64063;SDS011;50314;50.618;10.642;2023-04-22T10:37:39;2.35;;;1.67;;
64063;SDS011;50314;50.618;10.642;2023-04-22T10:40:15;1.95;;;1.38;;
64063;SDS011;50314;50.618;10.642;2023-04-22T10:42:46;2.10;;;1.58;;
64063;SDS011;50314;50.618;10.642;2023-04-22T10:45:14;3.05;;;1.70;;
64063;SDS011;50314;50.618;10.642;2023-04-22T10:47:39;2.50;;;1.50;;
64063;SDS011;50314;50.618;10.642;2023-04-22T10:52:55;2.05;;;1.50;;
64063;SDS011;50314;50.618;10.642;2023-04-22T10:55:23;4.10;;;1.60;;
64063;SDS011;50314;50.618;10.642;2023-04-22T10:57:50;4.32;;;1.70;;
64063;SDS011;50314;50.618;10.642;2023-04-22T11:05:23;3.08;;;1.58;;
64063;SDS011;50314;50.618;10.642;2023-04-22T11:07:51;2.80;;;1.63;;
64063;SDS011;50314;50.618;10.642;2023-04-22T11:10:51;4.18;;;1.50;;
64063;SDS011;50314;50.618;10.642;2023-04-22T11:13:15;3.65;;;1.85;;
64063;SDS011;50314;50.618;10.642;2023-04-22T11:15:44;2.03;;;1.80;;
64063;SDS011;50314;50.618;10.642;2023-04-22T11:18:21;2.63;;;1.83;;
64063;SDS011;50314;50.618;10.642;2023-04-22T11:20:49;3.38;;;1.60;;
64063;SDS011;50314;50.618;10.642;2023-04-22T11:23:26;2.75;;;1.63;;
64063;SDS011;50314;50.618;10.642;2023-04-22T11:25:53;2.90;;;1.70;;
64063;SDS011;50314;50.618;10.642;2023-04-22T11:28:20;2.03;;;1.52;;
64063;SDS011;50314;50.618;10.642;2023-04-22T11:30:47;2.88;;;1.70;;
64063;SDS011;50314;50.618;10.642;2023-04-22T11:33:13;2.65;;;1.80;;
64063;SDS011;50314;50.618;10.642;2023-04-22T11:35:40;2.15;;;1.60;;
64063;SDS011;50314;50.618;10.642;2023-04-22T11:38:06;3.72;;;1.70;;
64063;SDS011;50314;50.618;10.642;2023-04-22T11:40:53;2.17;;;1.63;;
64063;SDS011;50314;50.618;10.642;2023-04-22T11:43:19;1.98;;;1.42;;
64063;SDS011;50314;50.618;10.642;2023-04-22T11:45:45;3.88;;;1.65;;
64063;SDS011;50314;50.618;10.642;2023-04-22T11:48:10;2.38;;;1.60;;
64063;SDS011;50314;50.618;10.642;2023-04-22T11:50:37;2.35;;;1.85;;
64063;SDS011;50314;50.618;10.642;2023-04-22T11:53:08;3.38;;;1.60;;
64063;SDS011;50314;50.618;10.642;2023-04-22T11:55:44;2.67;;;1.67;;
64063;SDS011;50314;50.618;10.642;2023-04-22T11:58:11;2.65;;;1.75;;
64063;SDS011;50314;50.618;10.642;2023-04-22T12:03:12;2.90;;;2.05;;
64063;SDS011;50314;50.618;10.642;2023-04-22T12:08:10;3.97;;;2.13;;
64063;SDS011;50314;50.618;10.642;2023-04-22T12:10:43;3.25;;;1.63;;
64063;SDS011;50314;50.618;10.642;2023-04-22T12:13:24;2.80;;;2.15;;
64063;SDS011;50314;50.618;10.642;2023-04-22T12:16:01;3.10;;;2.08;;
64063;SDS011;50314;50.618;10.642;2023-04-22T12:18:34;2.10;;;1.40;;
64063;SDS011;50314;50.618;10.642;2023-04-22T12:23:28;3.42;;;1.67;;
64063;SDS011;50314;50.618;10.642;2023-04-22T12:25:55;2.60;;;1.80;;
64063;SDS011;50314;50.618;10.642;2023-04-22T12:28:21;2.28;;;1.75;;
64063;SDS011;50314;50.618;10.642;2023-04-22T12:30:46;2.35;;;1.50;;
64063;SDS011;50314;50.618;10.642;2023-04-22T12:33:12;2.50;;;1.90;;
64063;SDS011;50314;50.618;10.642;2023-04-22T12:35:37;2.67;;;1.50;;
64063;SDS011;50314;50.618;10.642;2023-04-22T12:38:03;2.67;;;1.65;;
64063;SDS011;50314;50.618;10.642;2023-04-22T12:40:28;4.28;;;1.70;;
64063;SDS011;50314;50.618;10.642;2023-04-22T12:42:54;1.85;;;1.38;;
64063;SDS011;50314;50.618;10.642;2023-04-22T12:45:19;3.17;;;1.80;;
64063;SDS011;50314;50.618;10.642;2023-04-22T12:47:47;2.42;;;1.30;;
64063;SDS011;50314;50.618;10.642;2023-04-22T12:50:13;2.22;;;1.50;;
64063;SDS011;50314;50.618;10.642;2023-04-22T12:52:39;1.55;;;1.30;;
64063;SDS011;50314;50.618;10.642;2023-04-22T12:55:05;2.00;;;1.52;;
64063;SDS011;50314;50.618;10.642;2023-04-22T12:57:31;1.80;;;1.17;;
64063;SDS011;50314;50.618;10.642;2023-04-22T12:59:57;5.47;;;1.40;;
64063;SDS011;50314;50.618;10.642;2023-04-22T13:02:22;2.03;;;1.27;;
64063;SDS011;50314;50.618;10.642;2023-04-22T13:04:48;1.52;;;1.40;;
64063;SDS011;50314;50.618;10.642;2023-04-22T13:07:13;3.83;;;1.67;;
64063;SDS011;50314;50.618;10.642;2023-04-22T13:09:40;2.80;;;1.30;;
64063;SDS011;50314;50.618;10.642;2023-04-22T13:12:05;1.30;;;1.20;;
64063;SDS011;50314;50.618;10.642;2023-04-22T13:14:31;1.95;;;1.33;;
64063;SDS011;50314;50.618;10.642;2023-04-22T13:16:56;2.58;;;1.77;;
64063;SDS011;50314;50.618;10.642;2023-04-22T13:19:22;2.28;;;1.48;;
64063;SDS011;50314;50.618;10.642;2023-04-22T13:21:49;3.15;;;1.50;;
64063;SDS011;50314;50.618;10.642;2023-04-22T13:24:15;3.13;;;1.48;;
64063;SDS011;50314;50.618;10.642;2023-04-22T13:26:40;2.03;;;1.48;;
64063;SDS011;50314;50.618;10.642;2023-04-22T13:29:06;1.88;;;1.50;;
64063;SDS011;50314;50.618;10.642;2023-04-22T13:31:38;2.53;;;1.17;;
64063;SDS011;50314;50.618;10.642;2023-04-22T13:34:06;2.72;;;1.60;;
64063;SDS011;50314;50.618;10.642;2023-04-22T13:36:31;4.88;;;1.20;;
64063;SDS011;50314;50.618;10.642;2023-04-22T13:38:57;1.50;;;1.30;;
64063;SDS011;50314;50.618;10.642;2023-04-22T13:41:24;2.47;;;1.30;;
64063;SDS011;50314;50.618;10.642;2023-04-22T13:43:49;2.30;;;1.40;;
64063;SDS011;50314;50.618;10.642;2023-04-22T13:46:18;1.63;;;1.48;;
64063;SDS011;50314;50.618;10.642;2023-04-22T13:48:44;1.95;;;1.30;;
64063;SDS011;50314;50.618;10.642;2023-04-22T13:51:10;2.22;;;1.58;;
64063;SDS011;50314;50.618;10.642;2023-04-22T13:53:35;2.75;;;1.33;;
64063;SDS011;50314;50.618;10.642;2023-04-22T13:56:01;3.22;;;1.33;;
64063;SDS011;50314;50.618;10.642;2023-04-22T13:58:26;1.80;;;1.60;;
64063;SDS011;50314;50.618;10.642;2023-04-22T14:00:51;2.35;;;1.60;;
64063;SDS011;50314;50.618;10.642;2023-04-22T14:03:17;2.70;;;1.48;;
64063;SDS011;50314;50.618;10.642;2023-04-22T14:05:42;1.45;;;1.20;;
64063;SDS011;50314;50.618;10.642;2023-04-22T14:08:08;2.03;;;1.40;;
64063;SDS011;50314;50.618;10.642;2023-04-22T14:10:33;1.95;;;1.05;;
64063;SDS011;50314;50.618;10.642;2023-04-22T14:12:59;2.42;;;1.40;;
64063;SDS011;50314;50.618;10.642;2023-04-22T14:15:24;1.58;;;1.10;;
64063;SDS011;50314;50.618;10.642;2023-04-22T14:17:50;1.65;;;1.50;;
64063;SDS011;50314;50.618;10.642;2023-04-22T14:20:15;3.63;;;1.17;;
64063;SDS011;50314;50.618;10.642;2023-04-22T14:22:41;3.42;;;1.40;;
64063;SDS011;50314;50.618;10.642;2023-04-22T14:25:06;1.80;;;1.50;;
64063;SDS011;50314;50.618;10.642;2023-04-22T14:27:32;2.42;;;1.40;;
64063;SDS011;50314;50.618;10.642;2023-04-22T14:29:58;1.42;;;1.20;;
64063;SDS011;50314;50.618;10.642;2023-04-22T14:32:23;1.48;;;1.08;;
64063;SDS011;50314;50.618;10.642;2023-04-22T14:34:49;1.52;;;1.10;;
64063;SDS011;50314;50.618;10.642;2023-04-22T14:37:15;1.58;;;1.40;;
64063;SDS011;50314;50.618;10.642;2023-04-22T14:39:40;2.03;;;1.58;;
64063;SDS011;50314;50.618;10.642;2023-04-22T14:44:38;1.65;;;1.13;;
64063;SDS011;50314;50.618;10.642;2023-04-22T14:47:04;2.60;;;1.38;;
64063;SDS011;50314;50.618;10.642;2023-04-22T14:49:30;1.40;;;1.10;;
64063;SDS011;50314;50.618;10.642;2023-04-22T14:51:56;1.90;;;1.40;;